Port Aransas, TX (PTAT2)

Conditions for Friday

Daily
Weekly
Monthly
Marine Data Graph

Marine & Boating Location Search

Enter a coastal zip code for marine weather.

General Information

Location: 27.826 -97.051
Buoy Type: C-MAN Station
Payload: MARS payload
Owned by: NDBC
Windspeed: Measured by obtained from anemometer
Sea Surface: Measured by Intake

Weather and Wave Data

Time Temp Humidity Wind Pressure
  Air
(°F)
Water
(°F)
  Dir Speed
(kts)
Speed
(mph)
Atmo.
(in)
Tend.
(in)
20:00 59 58 77 SE 10.0 11.5 30.05 -
21:00 59 58 78 SE 6.0 6.9 30.06 +0.01
22:00 60 58 74 SE 9.0 10.4 30.06 +0.01
23:00 60 57 78 SSE 6.0 6.9 30.06 +0.01
00:00 60 57 82 South 7.0 8.1 30.06 -
01:00 60 57 85 South 8.0 9.2 30.05 -
02:00 60 57 86 SSE 7.0 8.1 30.04 -0.02
03:00 60 57 89 SSE 4.0 4.6 30.03 -0.04
04:00 61 57 87 South 6.0 6.9 30.00 -0.05
05:00 60 57 91 South 4.0 4.6 29.99 -0.04
06:00 60 57 93 SSE 3.0 3.5 29.99 -0.04
07:00 60 57 93 - 0.0 0.0 29.99 -0.01
08:00 59 57 94 NNW 1.0 1.2 29.99 -
09:00 61 56 94 ENE 4.0 4.6 29.99 +0.01
10:00 61 57 93 East 8.0 9.2 29.99 -
11:00 63 57 91 ESE 8.0 9.2 29.99 -
12:00 64 57 88 ESE 8.0 9.2 29.95 -0.04
13:00 63 57 92 East 8.0 9.2 29.92 -0.07
14:00 64 58 94 East 11.0 12.7 29.89 -0.10
15:00 64 58 94 ESE 10.0 11.5 29.87 -0.08
16:00 64 58 98 East 7.0 8.1 29.87 -0.05
17:00 66 58 96 East 11.0 12.7 29.85 -0.04
18:00 66 58 96 East 10.0 11.5 29.85 -0.02
19:00 65 58 97 ESE 10.0 11.5 29.84 -0.02
20:00 65 58 100 ESE 8.0 9.2 29.85 -
21:00 66 58 99 SE 10.0 11.5 29.86 +0.01
22:00 65 58 97 SE 10.0 11.5 29.86 +0.01
23:00 66 58 100 SSE 9.0 10.4 29.87 +0.02
00:00 66 58 100 SSE 9.0 10.4 29.87 +0.01
01:00 66 58 100 SE 8.0 9.2 29.86 -
02:00 67 58 100 SE 14.0 16.1 29.84 -0.03
03:00 67 58 98 SSE 13.0 15.0 29.86 -

Detailed Wave Spectra